Hawkins, Wisconsin
Current Conditions -  °F | °C
As of 2:15 PM on Wednesday 26 Nov 2014 (Local Time) from KRCX Reporting Station
Light Snow Light Snow  
Wind Chill: 19°   Ceiling: 2000
Heat Index: 25°   Visibility: 3mi
Dew Point: 21°   Wind: 5mph
Humidity: 83%   Direction: 360°N
Pressure: 30.16"   Gusts: NA
Location:  45.51°N, 90.72°W
Report Text: KRCX 262015Z AUTO 36004KT 3SM -SN SCT014 OVC020 M04/M06 A3016 RMK AO2 T10381063
Loading
Personal Weather Stations






























Interactive Weather Map New forecast layout! Learn more

10-Day Weather Forecast

Advertisements
Track Severe Weather on mobile